createdAt,value
2019-03-26T00:01:05.149Z,6.45
2019-03-26T00:03:34.818Z,6.43
2019-03-26T00:06:04.543Z,6.44
2019-03-26T00:08:34.204Z,6.44
2019-03-26T00:11:03.913Z,6.44
2019-03-26T00:13:33.622Z,6.45
2019-03-26T00:16:03.320Z,6.47
2019-03-26T00:18:33.008Z,6.48
2019-03-26T00:21:02.663Z,6.49
2019-03-26T00:23:32.333Z,6.51
2019-03-26T00:26:01.996Z,6.48
2019-03-26T00:28:31.654Z,6.48
2019-03-26T00:31:01.319Z,6.45
2019-03-26T00:33:36.565Z,6.48
2019-03-26T00:36:02.390Z,6.47
2019-03-26T00:38:32.284Z,6.53
2019-03-26T00:41:02.025Z,6.49
2019-03-26T00:43:31.783Z,6.46
2019-03-26T00:46:01.453Z,6.44
2019-03-26T00:48:31.138Z,6.42
2019-03-26T00:51:00.808Z,6.42
2019-03-26T00:53:30.468Z,6.42
2019-03-26T00:56:00.206Z,6.46
2019-03-26T00:58:29.948Z,6.43
2019-03-26T01:00:59.649Z,6.45
2019-03-26T01:03:29.524Z,6.37
2019-03-26T01:05:59.218Z,6.36
2019-03-26T01:08:29.030Z,6.31
2019-03-26T01:10:58.718Z,6.28
2019-03-26T01:13:28.391Z,6.29
2019-03-26T01:15:58.031Z,6.32
2019-03-26T01:18:27.716Z,6.30
2019-03-26T01:20:57.375Z,6.27
2019-03-26T01:23:27.039Z,6.26
2019-03-26T01:25:56.715Z,6.29
2019-03-26T01:28:26.359Z,6.25
2019-03-26T01:30:56.057Z,5.34
2019-03-26T01:33:25.705Z,6.31
2019-03-26T01:35:55.329Z,6.28
2019-03-26T01:38:25.021Z,6.28
2019-03-26T01:40:54.663Z,6.25
2019-03-26T01:43:24.377Z,6.27
2019-03-26T01:45:54.023Z,5.52
2019-03-26T01:48:23.700Z,6.22
2019-03-26T01:50:53.354Z,6.22
2019-03-26T01:53:23.093Z,6.23
2019-03-26T01:55:52.710Z,6.16
2019-03-26T01:58:22.397Z,6.17
2019-03-26T02:00:52.102Z,6.16
2019-03-26T02:03:21.780Z,6.12
2019-03-26T02:05:51.452Z,6.15
2019-03-26T02:08:21.100Z,6.15
2019-03-26T02:10:50.768Z,6.15
2019-03-26T02:13:20.410Z,6.14
2019-03-26T02:15:50.100Z,6.12
2019-03-26T02:18:19.756Z,6.15
2019-03-26T02:20:49.460Z,6.15
2019-03-26T02:23:19.188Z,6.15
2019-03-26T02:25:48.890Z,6.12
2019-03-26T02:28:18.569Z,6.03
2019-03-26T02:30:48.244Z,5.99
2019-03-26T02:33:17.971Z,5.95
2019-03-26T02:35:47.631Z,5.92
2019-03-26T02:38:17.319Z,5.96
2019-03-26T02:40:46.980Z,5.91
2019-03-26T02:43:16.683Z,5.86
2019-03-26T02:45:46.303Z,5.87
2019-03-26T02:48:16.036Z,5.87
2019-03-26T02:50:45.690Z,5.85
2019-03-26T02:53:15.503Z,5.90
2019-03-26T02:55:45.147Z,5.89
2019-03-26T02:58:14.842Z,5.90
2019-03-26T03:00:44.480Z,5.92
2019-03-26T03:03:14.170Z,5.97
2019-03-26T03:05:43.865Z,5.97
2019-03-26T03:08:13.510Z,5.97
2019-03-26T03:10:43.197Z,5.97
2019-03-26T03:13:12.885Z,5.95
2019-03-26T03:15:42.525Z,5.93
2019-03-26T03:18:12.209Z,5.95
2019-03-26T03:20:41.828Z,5.95
2019-03-26T03:23:11.491Z,5.95
2019-03-26T03:25:41.166Z,5.92
2019-03-26T03:28:10.832Z,5.90
2019-03-26T03:30:40.527Z,5.86
2019-03-26T03:33:10.194Z,5.83
2019-03-26T03:35:52.064Z,5.84
2019-03-26T03:38:11.227Z,5.85
2019-03-26T03:40:40.862Z,5.83
2019-03-26T03:43:10.928Z,5.84
2019-03-26T03:45:41.286Z,5.84
2019-03-26T03:48:11.917Z,5.78
2019-03-26T03:50:43.208Z,5.75
2019-03-26T03:53:34.673Z,5.76
2019-03-26T03:56:05.069Z,5.71
2019-03-26T03:58:36.964Z,5.74
2019-03-26T04:01:06.635Z,5.76
2019-03-26T04:03:36.395Z,5.75
2019-03-26T04:06:09.345Z,5.75
2019-03-26T04:08:37.394Z,5.77
2019-03-26T04:11:07.032Z,5.78
2019-03-26T04:13:36.887Z,5.77
2019-03-26T04:16:06.600Z,5.78
2019-03-26T04:18:36.269Z,5.79
2019-03-26T04:21:05.958Z,5.80
2019-03-26T04:23:35.634Z,5.78
2019-03-26T04:26:05.301Z,5.75
2019-03-26T04:28:34.931Z,5.77
2019-03-26T04:31:04.593Z,5.77
2019-03-26T04:33:34.271Z,5.80
2019-03-26T04:36:03.943Z,5.78
2019-03-26T04:38:33.618Z,5.75
2019-03-26T04:41:03.502Z,5.72
2019-03-26T04:43:33.153Z,5.74
2019-03-26T04:46:02.887Z,5.80
2019-03-26T04:48:34.538Z,5.73
2019-03-26T04:51:04.208Z,5.69
2019-03-26T04:53:34.254Z,5.67
2019-03-26T04:56:04.088Z,5.69
2019-03-26T04:58:33.763Z,5.70
2019-03-26T05:01:03.460Z,5.69
2019-03-26T05:03:33.111Z,5.67
2019-03-26T05:06:02.816Z,5.68
2019-03-26T05:08:32.536Z,5.66
2019-03-26T05:11:02.191Z,5.65
2019-03-26T05:13:31.906Z,5.63
2019-03-26T05:16:01.574Z,5.60
2019-03-26T05:18:31.295Z,5.61
2019-03-26T05:21:00.957Z,5.69
2019-03-26T05:23:30.624Z,5.66
2019-03-26T05:26:00.300Z,5.69
2019-03-26T05:28:29.959Z,5.67
2019-03-26T05:30:59.648Z,5.67
2019-03-26T05:33:29.324Z,5.64
2019-03-26T05:35:59.111Z,5.66
2019-03-26T05:38:28.836Z,5.58
2019-03-26T05:40:58.490Z,5.60
2019-03-26T05:43:28.176Z,5.57
2019-03-26T05:45:57.832Z,5.58
2019-03-26T05:48:27.480Z,5.60
2019-03-26T05:50:57.176Z,5.60
2019-03-26T05:53:26.812Z,5.59
2019-03-26T05:55:56.502Z,5.60
2019-03-26T05:58:26.134Z,5.60
2019-03-26T06:00:55.816Z,5.60
2019-03-26T06:03:25.460Z,5.61
2019-03-26T06:05:55.151Z,5.60
2019-03-26T06:08:24.859Z,5.61
2019-03-26T06:10:54.557Z,5.62
2019-03-26T06:13:24.336Z,5.62
2019-03-26T06:15:53.982Z,5.65
2019-03-26T06:18:23.665Z,5.67
2019-03-26T06:20:53.337Z,5.65
2019-03-26T06:23:23.095Z,5.65
2019-03-26T06:25:52.966Z,5.67
2019-03-26T06:28:22.603Z,5.68
2019-03-26T06:30:52.287Z,5.71
2019-03-26T06:33:21.938Z,5.73
2019-03-26T06:35:51.615Z,5.73
2019-03-26T06:38:21.297Z,5.76
2019-03-26T06:40:51.017Z,5.81
2019-03-26T06:43:20.702Z,5.86
2019-03-26T06:45:50.394Z,5.92
2019-03-26T06:48:20.052Z,5.96
2019-03-26T06:50:49.748Z,5.98
2019-03-26T06:53:19.509Z,6.00
2019-03-26T06:55:49.187Z,6.03
2019-03-26T06:58:18.876Z,6.03
2019-03-26T07:00:48.566Z,6.05
2019-03-26T07:03:18.210Z,6.05
2019-03-26T07:05:48.107Z,6.09
2019-03-26T07:08:17.770Z,6.17
2019-03-26T07:10:47.461Z,6.23
2019-03-26T07:13:17.147Z,6.35
2019-03-26T07:15:46.834Z,6.46
2019-03-26T07:18:16.519Z,6.51
2019-03-26T07:20:46.370Z,6.54
2019-03-26T07:23:16.089Z,6.54
2019-03-26T07:25:45.796Z,6.65
2019-03-26T07:28:15.491Z,6.68
2019-03-26T07:30:47.324Z,6.81
2019-03-26T07:33:17.021Z,6.89
2019-03-26T07:35:46.713Z,6.90
2019-03-26T07:38:16.401Z,7.02
2019-03-26T07:40:46.083Z,7.19
2019-03-26T07:43:15.767Z,7.32
2019-03-26T07:45:45.422Z,7.34
2019-03-26T07:48:15.208Z,7.29
2019-03-26T07:50:44.919Z,7.18
2019-03-26T07:53:14.630Z,7.10
2019-03-26T07:55:44.337Z,7.40
2019-03-26T07:58:14.086Z,8.06
2019-03-26T08:00:43.741Z,8.20
2019-03-26T08:03:13.432Z,8.15
2019-03-26T08:05:43.130Z,7.99
2019-03-26T08:08:12.813Z,7.79
2019-03-26T08:10:42.501Z,7.75
2019-03-26T08:13:12.176Z,7.35
2019-03-26T08:15:42.035Z,7.86
2019-03-26T08:18:11.762Z,8.13
2019-03-26T08:20:41.449Z,8.43
2019-03-26T08:23:11.183Z,8.35
2019-03-26T08:25:40.846Z,8.23
2019-03-26T08:28:10.507Z,7.98
2019-03-26T08:30:40.174Z,7.82
2019-03-26T08:33:09.857Z,7.72
2019-03-26T08:35:39.580Z,7.58
2019-03-26T08:38:13.010Z,7.63
2019-03-26T08:40:40.768Z,7.64
2019-03-26T08:43:10.506Z,7.71
2019-03-26T08:45:40.212Z,8.53
2019-03-26T08:48:09.922Z,10.69
2019-03-26T08:50:39.611Z,12.51
2019-03-26T08:53:09.299Z,14.26
2019-03-26T08:55:38.952Z,15.63
2019-03-26T08:58:08.622Z,15.48
2019-03-26T09:00:38.333Z,15.65
2019-03-26T09:03:07.991Z,16.11
2019-03-26T09:05:37.675Z,16.24
2019-03-26T09:08:08.097Z,16.89
2019-03-26T09:10:50.954Z,17.48
2019-03-26T09:13:09.281Z,17.67
2019-03-26T09:15:38.995Z,17.38
2019-03-26T09:18:08.702Z,16.62
2019-03-26T09:20:38.387Z,15.51
2019-03-26T09:23:08.073Z,14.55
2019-03-26T09:25:37.768Z,13.78
2019-03-26T09:28:07.443Z,13.11
2019-03-26T09:30:37.117Z,12.52
2019-03-26T09:33:08.089Z,11.93
2019-03-26T09:35:37.804Z,11.46
2019-03-26T09:38:07.533Z,10.96
2019-03-26T09:40:37.177Z,10.65
2019-03-26T09:43:08.853Z,10.48
2019-03-26T09:45:38.540Z,10.19
2019-03-26T09:48:08.251Z,9.92
2019-03-26T09:50:38.032Z,9.72
2019-03-26T09:53:07.717Z,9.68
2019-03-26T09:55:37.396Z,9.74
2019-03-26T09:58:07.095Z,9.72
2019-03-26T10:00:36.827Z,9.82
2019-03-26T10:03:06.623Z,9.80
2019-03-26T10:05:36.296Z,9.68
2019-03-26T10:08:05.967Z,9.42
2019-03-26T10:10:35.666Z,9.28
2019-03-26T10:13:06.383Z,9.31
2019-03-26T10:15:36.070Z,9.39
2019-03-26T10:18:05.750Z,9.33
2019-03-26T10:20:35.430Z,9.26
2019-03-26T10:23:05.098Z,9.28
2019-03-26T10:25:34.854Z,9.16
2019-03-26T10:28:04.529Z,9.10
2019-03-26T10:30:53.037Z,9.12
2019-03-26T10:33:22.700Z,9.25
2019-03-26T10:35:52.480Z,9.14
2019-03-26T10:38:22.090Z,9.16
2019-03-26T10:40:51.751Z,9.17
2019-03-26T10:43:21.451Z,9.25
2019-03-26T10:45:51.133Z,9.29
2019-03-26T10:48:20.801Z,9.28
2019-03-26T10:50:50.448Z,9.26
2019-03-26T10:53:20.183Z,9.33
2019-03-26T10:55:49.895Z,9.34
2019-03-26T10:58:19.577Z,9.40
2019-03-26T11:00:49.248Z,9.43
2019-03-26T11:03:18.887Z,9.35
2019-03-26T11:05:48.579Z,9.29
2019-03-26T11:08:18.289Z,9.26
2019-03-26T11:10:48.010Z,9.20
2019-03-26T11:13:17.709Z,9.13
2019-03-26T11:15:47.405Z,9.05
2019-03-26T11:18:17.082Z,9.04
2019-03-26T11:20:46.815Z,9.00
2019-03-26T11:23:16.486Z,9.04
2019-03-26T11:25:46.152Z,9.05
2019-03-26T11:28:15.875Z,9.02
2019-03-26T11:30:45.496Z,9.00
2019-03-26T11:33:15.197Z,8.98
2019-03-26T11:35:44.921Z,8.97
2019-03-26T11:38:14.692Z,8.91
2019-03-26T11:40:44.458Z,8.89
2019-03-26T11:43:14.110Z,8.86
2019-03-26T11:45:43.786Z,8.84
2019-03-26T11:48:13.471Z,8.87
2019-03-26T11:50:43.138Z,8.89
2019-03-26T11:53:12.864Z,8.86
2019-03-26T11:55:42.536Z,8.74
2019-03-26T11:58:12.332Z,8.72
2019-03-26T12:00:42.003Z,8.60
2019-03-26T12:03:11.667Z,8.66
2019-03-26T12:05:41.367Z,8.66
2019-03-26T12:08:11.036Z,8.63
2019-03-26T12:10:40.733Z,8.64
2019-03-26T12:13:10.393Z,8.64
2019-03-26T12:15:40.045Z,8.71
2019-03-26T12:18:09.710Z,8.78
2019-03-26T12:20:39.380Z,8.78
2019-03-26T12:23:09.035Z,8.76
2019-03-26T12:25:38.712Z,8.76
2019-03-26T12:28:08.431Z,8.75
2019-03-26T12:30:41.108Z,8.74
2019-03-26T12:33:10.770Z,8.76
2019-03-26T12:35:40.427Z,8.69
2019-03-26T12:38:25.956Z,8.63
2019-03-26T12:40:55.634Z,8.58
2019-03-26T12:43:25.324Z,8.55
2019-03-26T12:45:54.958Z,8.51
2019-03-26T12:48:24.651Z,8.44
2019-03-26T12:50:54.335Z,8.44
2019-03-26T12:53:24.132Z,8.34
2019-03-26T12:55:53.788Z,8.35
2019-03-26T12:58:31.606Z,8.33
2019-03-26T13:00:54.854Z,8.32
2019-03-26T13:03:24.567Z,8.37
2019-03-26T13:05:54.216Z,8.34
2019-03-26T13:08:23.943Z,8.34
2019-03-26T13:10:54.261Z,8.33
2019-03-26T13:13:24.051Z,8.39
2019-03-26T13:15:53.796Z,8.38
2019-03-26T13:18:23.467Z,8.35
2019-03-26T13:20:53.199Z,8.35
2019-03-26T13:23:22.866Z,8.27
2019-03-26T13:25:52.547Z,8.25
2019-03-26T13:28:22.252Z,8.25
2019-03-26T13:30:51.976Z,8.22
2019-03-26T13:33:21.660Z,8.17
2019-03-26T13:35:51.366Z,8.18
2019-03-26T13:38:21.124Z,8.21
2019-03-26T13:40:50.936Z,8.17
2019-03-26T13:43:20.681Z,8.18
2019-03-26T13:45:50.357Z,8.17
2019-03-26T13:48:20.078Z,8.19
2019-03-26T13:50:49.836Z,8.17
2019-03-26T13:53:19.596Z,8.18
2019-03-26T13:55:49.250Z,8.20
2019-03-26T13:58:19.010Z,8.17
2019-03-26T14:00:48.662Z,8.18
2019-03-26T14:03:18.446Z,8.14
2019-03-26T14:05:48.108Z,8.13
2019-03-26T14:08:17.814Z,8.14
2019-03-26T14:10:47.514Z,8.04
2019-03-26T14:13:17.191Z,8.02
2019-03-26T14:15:46.907Z,8.03
2019-03-26T14:18:16.583Z,8.03
2019-03-26T14:20:47.407Z,8.06
2019-03-26T14:23:17.101Z,8.05
2019-03-26T14:25:46.837Z,8.03
2019-03-26T14:28:16.597Z,7.99
2019-03-26T14:30:46.391Z,8.01
2019-03-26T14:33:16.135Z,8.12
2019-03-26T14:35:45.820Z,8.11
2019-03-26T14:38:15.576Z,8.10
2019-03-26T14:40:54.809Z,8.14
2019-03-26T14:43:16.850Z,8.14
2019-03-26T14:45:46.551Z,8.22
2019-03-26T14:48:16.287Z,8.23
2019-03-26T14:50:45.966Z,8.21
2019-03-26T14:53:15.719Z,8.25
2019-03-26T14:55:45.413Z,8.25
2019-03-26T14:58:15.123Z,8.26
2019-03-26T15:00:44.885Z,8.27
2019-03-26T15:03:14.545Z,8.25
2019-03-26T15:05:44.228Z,8.26
2019-03-26T15:08:13.913Z,8.27
2019-03-26T15:10:43.562Z,8.28
2019-03-26T15:13:13.364Z,8.24
2019-03-26T15:15:43.048Z,8.22
2019-03-26T15:18:12.781Z,8.21
2019-03-26T15:20:42.499Z,8.18
2019-03-26T15:23:12.177Z,8.18
2019-03-26T15:25:41.957Z,8.17
2019-03-26T15:28:12.166Z,8.22
2019-03-26T15:30:42.001Z,8.25
2019-03-26T15:33:11.679Z,8.26
2019-03-26T15:35:41.471Z,8.29
2019-03-26T15:38:11.169Z,8.28
2019-03-26T15:40:40.865Z,8.27
2019-03-26T15:43:13.650Z,8.25
2019-03-26T15:45:43.450Z,8.24
2019-03-26T15:48:13.203Z,8.24
2019-03-26T15:50:44.311Z,8.22
2019-03-26T15:53:14.435Z,8.20
2019-03-26T15:55:45.644Z,8.18
2019-03-26T15:58:15.338Z,8.15
2019-03-26T16:00:45.008Z,8.15
2019-03-26T16:03:14.734Z,8.18
2019-03-26T16:05:44.422Z,8.21
2019-03-26T16:08:14.187Z,8.20
2019-03-26T16:10:43.946Z,8.16
2019-03-26T16:13:13.625Z,8.14
2019-03-26T16:15:45.054Z,8.09
2019-03-26T16:18:15.012Z,8.10
2019-03-26T16:20:44.768Z,8.11
2019-03-26T16:23:14.484Z,8.10
2019-03-26T16:25:44.196Z,8.14
2019-03-26T16:28:13.928Z,8.15
2019-03-26T16:30:43.620Z,8.12
2019-03-26T16:33:13.360Z,8.11
2019-03-26T16:35:43.205Z,8.12
2019-03-26T16:38:12.933Z,8.12
2019-03-26T16:40:42.668Z,8.10
2019-03-26T16:43:12.367Z,8.11
2019-03-26T16:45:42.167Z,8.11
2019-03-26T16:48:11.963Z,8.12
2019-03-26T16:50:41.802Z,8.10
2019-03-26T16:53:11.772Z,8.10
2019-03-26T16:55:41.447Z,8.13
2019-03-26T16:58:11.138Z,8.11
2019-03-26T17:00:40.930Z,8.10
2019-03-26T17:03:10.582Z,8.05
2019-03-26T17:05:40.322Z,8.05
2019-03-26T17:08:10.021Z,8.00
2019-03-26T17:10:39.740Z,5.68
2019-03-26T17:13:09.476Z,7.96
2019-03-26T17:15:39.276Z,7.97
2019-03-26T17:18:09.057Z,7.95
2019-03-26T17:20:38.714Z,7.95
2019-03-26T17:23:08.495Z,7.93
2019-03-26T17:25:38.258Z,7.94
2019-03-26T17:28:07.997Z,7.94
2019-03-26T17:30:37.692Z,7.91
2019-03-26T17:33:07.489Z,7.92
2019-03-26T17:35:37.180Z,7.91
2019-03-26T17:38:07.197Z,7.88
2019-03-26T17:40:36.829Z,7.89
2019-03-26T17:43:06.721Z,7.85
2019-03-26T17:45:36.681Z,7.84
2019-03-26T17:48:06.853Z,7.80
2019-03-26T17:50:36.755Z,7.76
2019-03-26T17:53:06.511Z,7.74
2019-03-26T17:55:36.449Z,7.74
2019-03-26T17:58:07.075Z,7.73
2019-03-26T18:00:42.936Z,7.74
2019-03-26T18:03:25.510Z,7.74
2019-03-26T18:05:44.536Z,7.73
2019-03-26T18:08:14.291Z,7.73
2019-03-26T18:10:44.040Z,7.73
2019-03-26T18:13:14.035Z,7.72
2019-03-26T18:15:43.848Z,7.70
2019-03-26T18:18:13.651Z,7.71
2019-03-26T18:20:43.511Z,7.70
2019-03-26T18:23:13.443Z,7.71
2019-03-26T18:25:43.356Z,7.69
2019-03-26T18:28:13.236Z,7.69
2019-03-26T18:30:43.141Z,7.68
2019-03-26T18:33:13.117Z,7.65
2019-03-26T18:35:43.326Z,7.64
2019-03-26T18:38:14.839Z,7.65
2019-03-26T18:40:45.253Z,7.64
2019-03-26T18:43:15.066Z,7.60
2019-03-26T18:45:44.856Z,7.60
2019-03-26T18:48:14.606Z,7.59
2019-03-26T18:50:44.724Z,7.57
2019-03-26T18:53:14.489Z,7.56
2019-03-26T18:55:44.451Z,7.57
2019-03-26T18:58:14.175Z,7.57
2019-03-26T19:00:43.935Z,7.55
2019-03-26T19:03:13.682Z,7.58
2019-03-26T19:05:44.212Z,7.57
2019-03-26T19:08:14.025Z,7.59
2019-03-26T19:10:43.725Z,7.59
2019-03-26T19:13:19.960Z,7.60
2019-03-26T19:15:45.226Z,7.61
2019-03-26T19:18:15.013Z,7.59
2019-03-26T19:20:45.119Z,7.58
2019-03-26T19:23:15.067Z,7.58
2019-03-26T19:25:44.976Z,7.59
2019-03-26T19:28:14.755Z,7.55
2019-03-26T19:30:48.276Z,7.55
2019-03-26T19:33:18.169Z,7.53
2019-03-26T19:35:47.960Z,7.52
2019-03-26T19:38:18.238Z,7.53
2019-03-26T19:40:48.026Z,7.55
2019-03-26T19:43:18.190Z,7.55
2019-03-26T19:45:48.075Z,7.52
2019-03-26T19:48:18.073Z,7.50
2019-03-26T19:50:48.178Z,7.49
2019-03-26T19:53:17.946Z,7.48
2019-03-26T19:55:47.705Z,7.47
2019-03-26T19:58:17.503Z,7.45
2019-03-26T20:00:47.467Z,7.44
2019-03-26T20:03:17.238Z,7.42
2019-03-26T20:05:47.181Z,7.41
2019-03-26T20:08:17.058Z,7.40
2019-03-26T20:10:47.052Z,7.39
2019-03-26T20:13:24.228Z,7.40
2019-03-26T20:15:48.697Z,7.42
2019-03-26T20:18:18.420Z,7.40
2019-03-26T20:20:48.746Z,7.39
2019-03-26T20:23:18.665Z,7.41
2019-03-26T20:25:49.408Z,7.41
2019-03-26T20:28:19.554Z,7.41
2019-03-26T20:30:50.414Z,7.42
2019-03-26T20:33:20.482Z,7.41
2019-03-26T20:35:50.633Z,7.40
2019-03-26T20:38:21.036Z,7.40
2019-03-26T20:41:10.297Z,7.40
2019-03-26T20:43:45.489Z,7.38
2019-03-26T20:46:14.525Z,7.38
2019-03-26T20:48:47.610Z,7.38
2019-03-26T20:51:26.239Z,7.36
2019-03-26T20:53:59.122Z,7.35
2019-03-26T20:56:29.235Z,7.33
2019-03-26T20:59:03.400Z,7.31
2019-03-26T21:01:35.082Z,7.32
2019-03-26T21:04:05.050Z,7.29
2019-03-26T21:06:42.585Z,7.26
2019-03-26T21:09:15.899Z,7.23
2019-03-26T21:11:47.152Z,7.22
2019-03-26T21:14:25.752Z,7.21
2019-03-26T21:16:57.336Z,7.20
2019-03-26T21:19:43.906Z,7.18
2019-03-26T21:25:09.462Z,7.19
2019-03-26T21:27:42.069Z,7.20
2019-03-26T21:30:15.817Z,7.16
2019-03-26T21:33:22.570Z,7.15
2019-03-26T21:36:09.285Z,7.14
2019-03-26T21:38:39.217Z,7.14
2019-03-26T21:44:03.672Z,7.13
2019-03-26T21:46:23.953Z,7.12
2019-03-26T21:48:53.838Z,7.11
2019-03-26T21:51:35.531Z,7.09
2019-03-26T21:54:05.369Z,7.10
2019-03-26T21:56:50.483Z,7.07
2019-03-26T21:59:19.132Z,7.06
2019-03-26T22:01:53.690Z,7.05
2019-03-26T22:04:23.599Z,7.02
2019-03-26T22:06:53.373Z,7.00
2019-03-26T22:09:23.258Z,6.98
2019-03-26T22:11:53.084Z,6.97
2019-03-26T22:14:23.028Z,6.94
2019-03-26T22:16:52.929Z,6.94
2019-03-26T22:19:28.547Z,6.92
2019-03-26T22:22:17.174Z,6.93
2019-03-26T22:24:53.850Z,6.91
2019-03-26T22:27:23.731Z,6.87
2019-03-26T22:29:53.515Z,6.84
2019-03-26T22:32:23.456Z,6.83
2019-03-26T22:34:53.213Z,6.82
2019-03-26T22:37:23.115Z,6.81
2019-03-26T22:39:52.954Z,6.81
2019-03-26T22:42:22.798Z,6.82
2019-03-26T22:44:52.645Z,6.83
2019-03-26T22:47:22.489Z,6.81
2019-03-26T22:49:52.261Z,6.78
2019-03-26T22:52:22.093Z,6.78
2019-03-26T22:54:54.117Z,6.77
2019-03-26T22:57:23.961Z,6.74
2019-03-26T22:59:53.873Z,6.74
2019-03-26T23:02:23.821Z,6.73
2019-03-26T23:04:53.719Z,6.73
2019-03-26T23:07:23.555Z,6.72
2019-03-26T23:09:53.358Z,6.71
2019-03-26T23:12:23.399Z,6.71
2019-03-26T23:14:53.417Z,6.71
2019-03-26T23:17:23.294Z,6.70
2019-03-26T23:19:53.141Z,6.67
2019-03-26T23:22:22.995Z,6.65
2019-03-26T23:24:52.830Z,6.65
2019-03-26T23:27:22.734Z,6.64
2019-03-26T23:29:52.570Z,6.64
2019-03-26T23:32:40.675Z,6.62
2019-03-26T23:35:10.896Z,6.63
2019-03-26T23:37:40.708Z,6.61
2019-03-26T23:40:10.977Z,6.61
2019-03-26T23:43:38.212Z,6.60
2019-03-26T23:45:47.595Z,6.59
2019-03-26T23:48:20.306Z,6.55
2019-03-26T23:50:50.096Z,6.52
2019-03-26T23:53:34.874Z,6.52
2019-03-26T23:56:10.611Z,6.51
2019-03-26T23:58:40.399Z,6.52
